Time;durP1;ratioP1;P1;durP2;ratioP2;P2;SDS_P1;SDS_P2;PMS_P1;PMS_P2;Temp;Humidity;BMP_temperature;BMP_pressure;BME280_temperature;BME280_humidity;BME280_pressure;Samples;Min_cycle;Max_cycle;Signal;HPM_P1;HPM_P2
2021/12/31 00:00:29;;;;;;;103.13;17.77;;;;;;;;;;4825395;29;20083;-76
2021/12/31 00:02:55;;;;;;;108.97;19.10;;;;;;;;;;4823611;29;20037;-76
2021/12/31 00:05:21;;;;;;;93.00;17.75;;;;;;;;;;4824821;29;20038;-75
2021/12/31 00:07:47;;;;;;;65.07;16.52;;;;;;;;;;4823306;29;20050;-75
2021/12/31 00:10:14;;;;;;;105.55;17.40;;;;;;;;;;4823501;29;20400;-76
2021/12/31 00:12:41;;;;;;;110.35;22.65;;;;;;;;;;4823461;29;20043;-76
2021/12/31 00:15:07;;;;;;;80.85;19.77;;;;;;;;;;4823395;29;20042;-75
2021/12/31 00:17:34;;;;;;;75.65;18.90;;;;;;;;;;4825165;29;20512;-75
2021/12/31 00:20:07;;;;;;;78.95;19.25;;;;;;;;;;4825198;29;20041;-75
2021/12/31 00:25:11;;;;;;;91.72;22.20;;;;;;;;;;4825447;29;20042;-76
2021/12/31 00:27:37;;;;;;;72.40;21.40;;;;;;;;;;4823347;29;20026;-76
2021/12/31 00:30:05;;;;;;;57.63;19.50;;;;;;;;;;4824558;29;20026;-77
2021/12/31 00:32:31;;;;;;;60.53;19.25;;;;;;;;;;4824558;29;20548;-76
2021/12/31 00:34:57;;;;;;;99.32;19.48;;;;;;;;;;4823263;29;20037;-77
2021/12/31 00:37:27;;;;;;;68.72;17.80;;;;;;;;;;4825022;29;20026;-76
2021/12/31 00:39:53;;;;;;;90.50;19.75;;;;;;;;;;4824764;29;20388;-76
2021/12/31 00:42:20;;;;;;;64.28;18.38;;;;;;;;;;4824584;29;20034;-76
2021/12/31 00:44:46;;;;;;;82.78;18.75;;;;;;;;;;4823264;29;20066;-76
2021/12/31 00:47:12;;;;;;;96.03;17.35;;;;;;;;;;4824431;29;20034;-75
2021/12/31 00:49:38;;;;;;;70.35;18.55;;;;;;;;;;4823218;29;20126;-76
2021/12/31 00:52:05;;;;;;;80.50;17.67;;;;;;;;;;4824383;29;20034;-76
2021/12/31 00:54:31;;;;;;;68.28;17.17;;;;;;;;;;4823134;29;20034;-77
2021/12/31 00:57:02;;;;;;;90.38;17.42;;;;;;;;;;4824390;29;20035;-75
2021/12/31 00:59:30;;;;;;;67.75;16.55;;;;;;;;;;4823240;29;20049;-74
2021/12/31 01:01:56;;;;;;;52.28;14.90;;;;;;;;;;4824307;29;20035;-77
2021/12/31 01:04:22;;;;;;;72.22;16.17;;;;;;;;;;4826121;29;20054;-76
2021/12/31 01:06:48;;;;;;;119.53;17.80;;;;;;;;;;4826210;29;20030;-75
2021/12/31 01:09:15;;;;;;;79.43;14.18;;;;;;;;;;4827638;29;20105;-77
2021/12/31 01:11:43;;;;;;;76.93;15.13;;;;;;;;;;4826446;29;20058;-76
2021/12/31 01:14:21;;;;;;;68.43;15.65;;;;;;;;;;4827525;29;20039;-75
2021/12/31 01:16:50;;;;;;;44.42;14.85;;;;;;;;;;4826302;29;20042;-76
2021/12/31 01:21:43;;;;;;;82.93;15.25;;;;;;;;;;4827494;29;20054;-76
2021/12/31 01:24:11;;;;;;;67.75;15.55;;;;;;;;;;4827378;29;20034;-77
2021/12/31 01:26:37;;;;;;;64.70;15.20;;;;;;;;;;4826223;29;20095;-77
2021/12/31 01:29:03;;;;;;;85.72;16.80;;;;;;;;;;4826097;29;20118;-76
2021/12/31 01:31:30;;;;;;;67.43;15.80;;;;;;;;;;4826100;29;20034;-76
2021/12/31 01:33:56;;;;;;;107.43;16.67;;;;;;;;;;4827233;29;20074;-77
2021/12/31 01:36:23;;;;;;;51.20;15.80;;;;;;;;;;4827256;29;20068;-76
2021/12/31 01:38:49;;;;;;;80.72;16.15;;;;;;;;;;4826202;29;20384;-76
2021/12/31 01:41:15;;;;;;;83.32;16.42;;;;;;;;;;4825897;29;20444;-75
2021/12/31 01:43:41;;;;;;;43.45;15.35;;;;;;;;;;4825996;29;20026;-76
2021/12/31 01:46:13;;;;;;;50.95;15.77;;;;;;;;;;4825898;29;20503;-76
2021/12/31 01:51:24;;;;;;;43.05;15.02;;;;;;;;;;4827860;29;20460;-74
2021/12/31 01:53:50;;;;;;;33.30;14.73;;;;;;;;;;4825868;29;20038;-76
2021/12/31 01:56:18;;;;;;;46.97;15.15;;;;;;;;;;4825763;29;20420;-76
2021/12/31 01:58:47;;;;;;;46.53;17.00;;;;;;;;;;4825856;29;20549;-76
2021/12/31 02:01:14;;;;;;;42.38;16.27;;;;;;;;;;4827082;29;20026;-75
2021/12/31 02:03:40;;;;;;;47.38;15.05;;;;;;;;;;4825385;29;20035;-77
2021/12/31 02:06:06;;;;;;;46.30;15.52;;;;;;;;;;4825359;29;20503;-76
2021/12/31 02:08:32;;;;;;;45.65;16.35;;;;;;;;;;4825123;29;20515;-76
2021/12/31 02:10:58;;;;;;;42.72;15.88;;;;;;;;;;4825270;29;20064;-77
2021/12/31 02:13:25;;;;;;;45.20;15.80;;;;;;;;;;4825077;29;20042;-77
2021/12/31 02:15:52;;;;;;;42.55;16.02;;;;;;;;;;4825228;29;20038;-76
2021/12/31 02:18:19;;;;;;;41.00;15.68;;;;;;;;;;4826421;29;20033;-76
2021/12/31 02:20:47;;;;;;;36.38;14.93;;;;;;;;;;4825174;29;20480;-77
2021/12/31 02:23:42;;;;;;;39.28;15.18;;;;;;;;;;4825075;29;20377;-76
2021/12/31 02:26:08;;;;;;;35.13;15.05;;;;;;;;;;4825120;29;20552;-76
2021/12/31 02:28:34;;;;;;;39.60;15.77;;;;;;;;;;4825035;29;20031;-76
2021/12/31 02:31:03;;;;;;;42.22;15.45;;;;;;;;;;4825008;29;20388;-76
2021/12/31 02:33:29;;;;;;;39.58;15.55;;;;;;;;;;4825019;29;20042;-76
2021/12/31 02:35:56;;;;;;;34.03;14.43;;;;;;;;;;4826788;29;20031;-74
2021/12/31 02:38:22;;;;;;;25.92;13.25;;;;;;;;;;4824881;29;20038;-76
2021/12/31 02:40:48;;;;;;;28.30;12.50;;;;;;;;;;4824883;29;20022;-77
2021/12/31 02:43:14;;;;;;;25.67;11.75;;;;;;;;;;4824773;29;20034;-75
2021/12/31 02:45:42;;;;;;;23.73;11.40;;;;;;;;;;4826025;29;20105;-77
2021/12/31 02:48:08;;;;;;;25.88;10.88;;;;;;;;;;4826041;29;20026;-74
2021/12/31 02:50:38;;;;;;;23.17;10.25;;;;;;;;;;4824748;29;20031;-74
2021/12/31 02:53:06;;;;;;;20.98;10.18;;;;;;;;;;4824723;29;20103;-76
2021/12/31 02:55:34;;;;;;;23.90;11.13;;;;;;;;;;4824713;29;20117;-77
2021/12/31 02:58:01;;;;;;;24.75;10.77;;;;;;;;;;4824597;29;20447;-77
2021/12/31 03:00:27;;;;;;;23.88;11.05;;;;;;;;;;4824537;29;20060;-77
2021/12/31 03:02:55;;;;;;;26.27;10.90;;;;;;;;;;4824653;29;20027;-77
2021/12/31 03:05:22;;;;;;;22.63;9.73;;;;;;;;;;4825439;29;20509;-76
2021/12/31 03:07:48;;;;;;;21.88;9.75;;;;;;;;;;4824469;29;20058;-77
2021/12/31 03:10:15;;;;;;;23.90;10.45;;;;;;;;;;4826318;29;20113;-77
2021/12/31 03:12:42;;;;;;;25.88;10.00;;;;;;;;;;4824492;29;20039;-75
2021/12/31 03:15:09;;;;;;;24.45;10.77;;;;;;;;;;4825689;29;20461;-77
2021/12/31 03:17:35;;;;;;;20.63;9.35;;;;;;;;;;4824347;29;20026;-77
2021/12/31 03:20:11;;;;;;;23.25;10.02;;;;;;;;;;4826194;29;20060;-77
2021/12/31 03:22:38;;;;;;;21.15;9.70;;;;;;;;;;4824436;29;20129;-75
2021/12/31 03:25:04;;;;;;;23.30;10.45;;;;;;;;;;4825186;29;20388;-77
2021/12/31 03:27:31;;;;;;;20.55;9.90;;;;;;;;;;4825456;29;20041;-77
2021/12/31 03:29:58;;;;;;;21.77;9.68;;;;;;;;;;4826006;29;20022;-76
2021/12/31 03:32:24;;;;;;;24.23;11.10;;;;;;;;;;4825429;29;20495;-76
2021/12/31 03:34:50;;;;;;;23.40;10.75;;;;;;;;;;4824235;29;20042;-77
2021/12/31 03:37:17;;;;;;;22.63;9.70;;;;;;;;;;4825454;29;20049;-76
2021/12/31 03:39:43;;;;;;;26.17;10.80;;;;;;;;;;4824179;29;20387;-76
2021/12/31 03:42:14;;;;;;;23.85;10.80;;;;;;;;;;4825366;29;20027;-74
2021/12/31 03:44:42;;;;;;;25.55;10.80;;;;;;;;;;4825630;29;20030;-76
2021/12/31 03:47:08;;;;;;;25.77;11.10;;;;;;;;;;4824095;29;20038;-76
2021/12/31 03:49:35;;;;;;;24.63;11.00;;;;;;;;;;4824073;29;20437;-76
2021/12/31 03:52:01;;;;;;;27.80;10.43;;;;;;;;;;4825763;29;20034;-77
2021/12/31 03:54:27;;;;;;;23.75;10.48;;;;;;;;;;4824003;29;20133;-76
2021/12/31 03:56:54;;;;;;;25.33;11.80;;;;;;;;;;4825230;29;20034;-76
2021/12/31 03:59:20;;;;;;;25.83;11.50;;;;;;;;;;4825236;29;20034;-76
2021/12/31 04:01:46;;;;;;;25.20;11.60;;;;;;;;;;4823902;29;20062;-76
2021/12/31 04:04:13;;;;;;;29.98;10.75;;;;;;;;;;4825136;29;20037;-75
2021/12/31 04:06:39;;;;;;;30.13;12.95;;;;;;;;;;4825323;29;20045;-77
2021/12/31 04:09:06;;;;;;;31.88;13.63;;;;;;;;;;4823862;29;20393;-77
2021/12/31 04:11:32;;;;;;;29.30;12.75;;;;;;;;;;4824785;29;20046;-77
2021/12/31 04:13:58;;;;;;;26.70;11.68;;;;;;;;;;4825449;29;20393;-77
2021/12/31 04:16:25;;;;;;;29.80;12.57;;;;;;;;;;4825256;29;20030;-76
2021/12/31 04:18:51;;;;;;;30.35;12.73;;;;;;;;;;4825185;29;20037;-77
2021/12/31 04:21:19;;;;;;;29.20;12.63;;;;;;;;;;4823474;29;20034;-76
2021/12/31 04:24:04;;;;;;;36.03;12.25;;;;;;;;;;4823440;29;20117;-76
2021/12/31 04:26:30;;;;;;;27.08;11.27;;;;;;;;;;4825264;29;20022;-76
2021/12/31 04:28:56;;;;;;;29.63;12.15;;;;;;;;;;4825102;29;20027;-74
2021/12/31 04:31:23;;;;;;;30.17;11.00;;;;;;;;;;4825152;29;20380;-77
2021/12/31 04:33:49;;;;;;;31.10;11.40;;;;;;;;;;4823246;29;20103;-76
2021/12/31 04:36:15;;;;;;;32.42;12.27;;;;;;;;;;4823593;29;20026;-76
2021/12/31 04:38:42;;;;;;;33.25;11.73;;;;;;;;;;4827277;29;20034;-77
2021/12/31 04:41:08;;;;;;;29.77;11.60;;;;;;;;;;4828145;29;20030;-76
2021/12/31 04:43:34;;;;;;;29.95;11.07;;;;;;;;;;4826962;29;20050;-76
2021/12/31 04:46:00;;;;;;;27.38;10.48;;;;;;;;;;4826886;29;20026;-76
2021/12/31 04:48:26;;;;;;;29.58;10.85;;;;;;;;;;4826766;29;20034;-76
2021/12/31 04:50:53;;;;;;;25.08;10.32;;;;;;;;;;4828523;29;20031;-75
2021/12/31 04:53:19;;;;;;;24.83;10.20;;;;;;;;;;4826611;29;20049;-76
2021/12/31 04:55:45;;;;;;;28.27;10.10;;;;;;;;;;4827449;29;20121;-77
2021/12/31 04:58:11;;;;;;;26.10;11.20;;;;;;;;;;4826588;29;20477;-76
2021/12/31 05:00:37;;;;;;;26.80;10.50;;;;;;;;;;4826771;29;20031;-77
2021/12/31 05:03:10;;;;;;;26.98;10.15;;;;;;;;;;4827282;29;20034;-76
2021/12/31 05:05:36;;;;;;;20.70;9.45;;;;;;;;;;4826522;29;20117;-76
2021/12/31 05:08:03;;;;;;;23.02;10.05;;;;;;;;;;4827472;29;20058;-78
2021/12/31 05:10:31;;;;;;;25.30;9.63;;;;;;;;;;4827666;29;20105;-76
2021/12/31 05:12:58;;;;;;;26.17;10.13;;;;;;;;;;4826246;29;20070;-75
2021/12/31 05:15:26;;;;;;;25.52;10.13;;;;;;;;;;4827872;29;20384;-77
2021/12/31 05:17:52;;;;;;;27.08;9.73;;;;;;;;;;4826340;29;20562;-76
2021/12/31 05:20:18;;;;;;;25.90;10.23;;;;;;;;;;4826251;29;20034;-76
2021/12/31 05:22:45;;;;;;;27.23;10.10;;;;;;;;;;4826150;29;20480;-76
2021/12/31 05:25:11;;;;;;;28.23;9.45;;;;;;;;;;4826129;29;20026;-76
2021/12/31 05:27:37;;;;;;;25.92;10.32;;;;;;;;;;4826146;29;20034;-77
2021/12/31 05:30:04;;;;;;;20.58;9.23;;;;;;;;;;4827335;29;20487;-77
2021/12/31 05:32:31;;;;;;;26.08;9.63;;;;;;;;;;4827258;29;20026;-76
2021/12/31 05:34:57;;;;;;;25.35;10.18;;;;;;;;;;4827888;29;20106;-76
2021/12/31 05:37:23;;;;;;;21.65;9.93;;;;;;;;;;4827748;29;20027;-77
2021/12/31 05:39:49;;;;;;;25.83;9.68;;;;;;;;;;4825947;29;20063;-76
2021/12/31 05:42:15;;;;;;;26.83;10.43;;;;;;;;;;4825832;29;20049;-77
2021/12/31 05:44:42;;;;;;;27.27;11.38;;;;;;;;;;4827033;29;20082;-76
2021/12/31 05:47:08;;;;;;;29.00;10.90;;;;;;;;;;4827090;29;20041;-77
2021/12/31 05:49:34;;;;;;;28.52;10.77;;;;;;;;;;4826593;29;20034;-76
2021/12/31 05:52:00;;;;;;;28.83;11.15;;;;;;;;;;4825877;29;20026;-77
2021/12/31 05:54:26;;;;;;;26.48;10.95;;;;;;;;;;4825654;29;20484;-77
2021/12/31 05:56:53;;;;;;;26.17;10.73;;;;;;;;;;4825678;29;20476;-77
2021/12/31 05:59:19;;;;;;;29.95;11.35;;;;;;;;;;4827411;29;20049;-75
2021/12/31 06:01:45;;;;;;;28.70;11.27;;;;;;;;;;4825673;29;20034;-76
2021/12/31 06:04:11;;;;;;;23.17;10.07;;;;;;;;;;4827488;29;20035;-76
2021/12/31 06:06:38;;;;;;;30.63;12.05;;;;;;;;;;4826790;29;20059;-77
2021/12/31 06:09:05;;;;;;;24.85;11.32;;;;;;;;;;4826814;29;20149;-77
2021/12/31 06:11:32;;;;;;;28.70;12.88;;;;;;;;;;4825567;29;20038;-76
2021/12/31 06:14:02;;;;;;;28.15;11.07;;;;;;;;;;4825892;29;20137;-75
2021/12/31 06:16:29;;;;;;;24.10;10.07;;;;;;;;;;4827283;29;20046;-77
2021/12/31 06:18:55;;;;;;;26.58;10.65;;;;;;;;;;4827011;29;20062;-77
2021/12/31 06:21:22;;;;;;;28.13;11.27;;;;;;;;;;4826926;29;20065;-75
2021/12/31 06:23:48;;;;;;;26.05;10.50;;;;;;;;;;4825183;29;20038;-76
2021/12/31 06:26:14;;;;;;;26.05;11.25;;;;;;;;;;4825076;29;20038;-77
2021/12/31 06:28:40;;;;;;;31.13;11.65;;;;;;;;;;4826310;29;20042;-77
2021/12/31 06:31:06;;;;;;;23.30;10.98;;;;;;;;;;4825009;29;20065;-75
2021/12/31 06:33:32;;;;;;;27.85;11.02;;;;;;;;;;4824903;29;20046;-76
2021/12/31 06:35:59;;;;;;;25.65;11.73;;;;;;;;;;4824752;29;20058;-76
2021/12/31 06:38:25;;;;;;;26.70;11.75;;;;;;;;;;4824614;29;20037;-76
2021/12/31 06:40:51;;;;;;;24.05;11.82;;;;;;;;;;4824504;29;20030;-76
2021/12/31 06:43:17;;;;;;;24.40;10.95;;;;;;;;;;4824745;29;20034;-76
2021/12/31 06:45:43;;;;;;;26.80;11.20;;;;;;;;;;4826476;29;20030;-76
2021/12/31 06:48:10;;;;;;;16.88;7.78;;;;;;;;;;4824686;29;20472;-76
2021/12/31 06:50:36;;;;;;;8.60;4.03;;;;;;;;;;4826014;29;20438;-77
2021/12/31 06:53:03;;;;;;;8.98;4.28;;;;;;;;;;4825857;29;20069;-77
2021/12/31 06:55:29;;;;;;;9.32;4.25;;;;;;;;;;4825919;29;20050;-77
2021/12/31 06:57:55;;;;;;;9.32;3.90;;;;;;;;;;4826343;29;20030;-75
2021/12/31 07:00:21;;;;;;;7.25;3.30;;;;;;;;;;4823795;29;20040;-77
2021/12/31 07:02:47;;;;;;;7.45;3.03;;;;;;;;;;4825815;29;20119;-76
2021/12/31 07:05:13;;;;;;;5.25;2.47;;;;;;;;;;4824603;29;20038;-77
2021/12/31 07:07:40;;;;;;;4.97;2.17;;;;;;;;;;4824249;29;20043;-75
2021/12/31 07:10:07;;;;;;;4.47;2.13;;;;;;;;;;4824428;29;20062;-76
2021/12/31 07:12:33;;;;;;;2.42;1.17;;;;;;;;;;4824265;29;20049;-76
2021/12/31 07:14:59;;;;;;;2.28;1.38;;;;;;;;;;4825650;29;20033;-79
2021/12/31 07:17:28;;;;;;;2.50;0.93;;;;;;;;;;4824429;29;20396;-79
2021/12/31 07:19:54;;;;;;;3.05;1.23;;;;;;;;;;4824324;29;20051;-78
2021/12/31 07:22:21;;;;;;;6.03;1.77;;;;;;;;;;4824318;29;20030;-80
2021/12/31 07:24:47;;;;;;;13.13;4.90;;;;;;;;;;4825488;29;20121;-78
2021/12/31 07:27:13;;;;;;;10.77;5.35;;;;;;;;;;4824015;29;20034;-80
2021/12/31 07:29:39;;;;;;;8.55;4.80;;;;;;;;;;4825332;29;20026;-80
2021/12/31 07:32:06;;;;;;;13.23;5.68;;;;;;;;;;4823957;29;20086;-80
2021/12/31 07:34:32;;;;;;;15.18;5.68;;;;;;;;;;4825261;29;20042;-79
2021/12/31 07:36:59;;;;;;;18.40;7.60;;;;;;;;;;4825281;29;20078;-79
2021/12/31 07:39:30;;;;;;;17.33;7.15;;;;;;;;;;4823980;29;20392;-78
2021/12/31 07:43:57;;;;;;;40.10;16.38;;;;;;;;;;5111134;27;20401;-81
2021/12/31 07:46:23;;;;;;;33.17;14.07;;;;;;;;;;5092817;28;20070;-80
2021/12/31 07:48:49;;;;;;;34.17;14.35;;;;;;;;;;5092952;28;20034;-82
2021/12/31 07:51:15;;;;;;;28.10;11.85;;;;;;;;;;5092737;28;20028;-79
2021/12/31 07:53:41;;;;;;;30.50;13.30;;;;;;;;;;5111040;28;20016;-80
2021/12/31 07:56:07;;;;;;;26.15;12.00;;;;;;;;;;5092761;28;20028;-81
2021/12/31 07:58:33;;;;;;;24.58;11.35;;;;;;;;;;5111611;28;20392;-80
2021/12/31 08:01:00;;;;;;;38.35;15.50;;;;;;;;;;5092917;28;20464;-80
2021/12/31 08:03:26;;;;;;;43.85;17.83;;;;;;;;;;5092654;28;20032;-81
2021/12/31 08:05:52;;;;;;;30.60;13.73;;;;;;;;;;5110850;28;20488;-80
2021/12/31 08:08:19;;;;;;;22.05;11.10;;;;;;;;;;5092633;28;20108;-80
2021/12/31 08:10:46;;;;;;;24.17;11.20;;;;;;;;;;5092789;28;20057;-77
2021/12/31 08:13:14;;;;;;;25.15;10.68;;;;;;;;;;5111139;28;20023;-81
2021/12/31 08:15:40;;;;;;;23.02;11.13;;;;;;;;;;5092948;28;20028;-80
2021/12/31 08:18:07;;;;;;;22.27;10.13;;;;;;;;;;5093006;28;20023;-80
2021/12/31 08:20:35;;;;;;;23.33;10.63;;;;;;;;;;5111352;28;20503;-79
2021/12/31 08:23:09;;;;;;;18.63;9.20;;;;;;;;;;5092889;28;20078;-78
2021/12/31 08:25:35;;;;;;;20.33;8.95;;;;;;;;;;5111412;28;20027;-78
2021/12/31 08:28:02;;;;;;;19.38;9.00;;;;;;;;;;5092536;28;20020;-78
2021/12/31 08:30:28;;;;;;;22.17;7.95;;;;;;;;;;5111103;28;20375;-80
2021/12/31 08:32:54;;;;;;;19.13;7.53;;;;;;;;;;5093279;28;20028;-78
2021/12/31 08:35:20;;;;;;;19.65;8.18;;;;;;;;;;5092211;28;20051;-78
2021/12/31 08:37:46;;;;;;;24.92;8.85;;;;;;;;;;5092246;28;20030;-79
2021/12/31 08:40:13;;;;;;;19.42;7.43;;;;;;;;;;5092143;28;20024;-78
2021/12/31 08:42:42;;;;;;;20.45;9.18;;;;;;;;;;5110056;28;20086;-80
2021/12/31 08:45:08;;;;;;;21.77;8.65;;;;;;;;;;5092074;28;20392;-78
2021/12/31 08:47:35;;;;;;;21.08;9.75;;;;;;;;;;5091841;28;20557;-78
2021/12/31 08:50:01;;;;;;;20.45;8.82;;;;;;;;;;5091986;28;20032;-78
2021/12/31 08:52:27;;;;;;;18.35;8.70;;;;;;;;;;5091843;28;20020;-78
2021/12/31 08:54:54;;;;;;;26.00;9.68;;;;;;;;;;5098504;28;20028;-80
2021/12/31 08:57:20;;;;;;;24.25;8.18;;;;;;;;;;5078474;28;20110;-79
2021/12/31 08:59:46;;;;;;;22.70;8.48;;;;;;;;;;5078165;28;20039;-78
2021/12/31 09:02:13;;;;;;;17.55;8.23;;;;;;;;;;5078120;28;20059;-77
2021/12/31 09:04:39;;;;;;;15.63;7.75;;;;;;;;;;5078139;28;20028;-78
2021/12/31 09:07:05;;;;;;;15.88;6.90;;;;;;;;;;5096263;28;20052;-79
2021/12/31 09:09:32;;;;;;;19.70;7.80;;;;;;;;;;5078432;28;20067;-79
2021/12/31 09:11:58;;;;;;;12.20;6.47;;;;;;;;;;5078424;28;20024;-79
2021/12/31 09:14:24;;;;;;;13.48;6.85;;;;;;;;;;5096075;28;20032;-77
2021/12/31 09:16:51;;;;;;;12.32;5.45;;;;;;;;;;5077917;28;20020;-77
2021/12/31 09:19:18;;;;;;;17.98;7.43;;;;;;;;;;5077779;28;20046;-76
2021/12/31 09:21:44;;;;;;;13.85;5.72;;;;;;;;;;5077673;28;20431;-76
2021/12/31 09:24:11;;;;;;;3.78;1.58;;;;;;;;;;5077759;28;20073;-77
2021/12/31 09:26:37;;;;;;;1.40;0.73;;;;;;;;;;5077741;28;20076;-79
2021/12/31 09:29:04;;;;;;;2.67;1.27;;;;;;;;;;5077591;28;20024;-78
2021/12/31 09:31:30;;;;;;;6.93;3.00;;;;;;;;;;5077574;28;20024;-76
2021/12/31 09:33:56;;;;;;;5.95;3.20;;;;;;;;;;5077529;28;20384;-75
2021/12/31 09:36:23;;;;;;;2.95;1.33;;;;;;;;;;5077455;28;20016;-78
2021/12/31 09:38:49;;;;;;;0.63;0.38;;;;;;;;;;5077380;28;20044;-79
2021/12/31 09:41:15;;;;;;;1.15;0.50;;;;;;;;;;5077432;28;20119;-79
2021/12/31 09:43:45;;;;;;;0.47;0.30;;;;;;;;;;5095321;28;20552;-77
2021/12/31 09:46:12;;;;;;;1.40;0.57;;;;;;;;;;5077588;28;20021;-80
2021/12/31 09:48:38;;;;;;;0.85;0.50;;;;;;;;;;5077259;28;20039;-78
2021/12/31 09:51:07;;;;;;;0.90;0.40;;;;;;;;;;5095344;28;20543;-81
2021/12/31 09:53:33;;;;;;;1.23;0.60;;;;;;;;;;5077329;28;20089;-80
2021/12/31 09:55:59;;;;;;;1.15;0.70;;;;;;;;;;5077107;28;20020;-80
2021/12/31 09:58:26;;;;;;;1.88;1.00;;;;;;;;;;5095656;28;20020;-79
2021/12/31 10:00:53;;;;;;;3.58;1.08;;;;;;;;;;5074181;28;20414;-79
2021/12/31 10:03:25;;;;;;;1.60;0.70;;;;;;;;;;5076964;28;20020;-78
2021/12/31 10:05:56;;;;;;;2.10;0.80;;;;;;;;;;5094067;28;20032;-79
2021/12/31 10:08:28;;;;;;;1.13;0.50;;;;;;;;;;5076971;28;20506;-80
2021/12/31 10:11:03;;;;;;;0.82;0.50;;;;;;;;;;5076815;28;20032;-79
2021/12/31 10:13:29;;;;;;;3.10;0.50;;;;;;;;;;5076390;28;20036;-81
2021/12/31 10:15:56;;;;;;;0.70;0.50;;;;;;;;;;5076417;28;20032;-80
2021/12/31 10:18:29;;;;;;;1.27;0.55;;;;;;;;;;5076380;28;20529;-80
2021/12/31 10:20:55;;;;;;;1.98;0.55;;;;;;;;;;5076619;28;20028;-80
2021/12/31 10:23:21;;;;;;;0.77;0.50;;;;;;;;;;5076503;28;20028;-80
2021/12/31 10:25:48;;;;;;;0.98;0.60;;;;;;;;;;5094760;28;20047;-80
2021/12/31 10:28:15;;;;;;;1.35;0.75;;;;;;;;;;5076479;28;20031;-75
2021/12/31 10:30:42;;;;;;;0.77;0.43;;;;;;;;;;5094383;28;20020;-82
2021/12/31 10:33:09;;;;;;;1.05;0.50;;;;;;;;;;5076426;28;20106;-77
2021/12/31 10:35:45;;;;;;;1.27;0.60;;;;;;;;;;5076311;28;20036;-81
2021/12/31 10:38:12;;;;;;;1.02;0.50;;;;;;;;;;5076488;28;20039;-81
2021/12/31 10:40:46;;;;;;;3.40;0.60;;;;;;;;;;5076293;28;20020;-81
2021/12/31 10:43:15;;;;;;;2.45;0.50;;;;;;;;;;5076022;28;20048;-81
2021/12/31 10:46:14;;;;;;;1.42;0.60;;;;;;;;;;5076301;28;20020;-81
2021/12/31 10:48:44;;;;;;;1.25;0.57;;;;;;;;;;5050287;28;20036;-81
2021/12/31 10:51:12;;;;;;;0.77;0.40;;;;;;;;;;5076080;28;20024;-80
2021/12/31 10:53:38;;;;;;;1.73;0.68;;;;;;;;;;5094140;28;20032;-81
2021/12/31 10:56:09;;;;;;;1.00;0.57;;;;;;;;;;5076203;28;20082;-80
2021/12/31 10:58:35;;;;;;;1.23;0.60;;;;;;;;;;5076018;28;20027;-81
2021/12/31 11:01:04;;;;;;;0.95;0.50;;;;;;;;;;5075911;28;20430;-81
2021/12/31 11:03:30;;;;;;;0.73;0.40;;;;;;;;;;5075950;28;20540;-80
2021/12/31 11:05:57;;;;;;;1.00;0.40;;;;;;;;;;5075847;28;20024;-81
2021/12/31 11:08:24;;;;;;;1.65;0.50;;;;;;;;;;5075886;28;20464;-76
2021/12/31 11:10:51;;;;;;;1.08;0.60;;;;;;;;;;5094198;28;20024;-77
2021/12/31 11:13:19;;;;;;;1.92;0.50;;;;;;;;;;5075808;28;20040;-77
2021/12/31 11:15:47;;;;;;;1.05;0.55;;;;;;;;;;5075915;28;20031;-82
2021/12/31 11:18:20;;;;;;;1.10;0.50;;;;;;;;;;5075556;28;20051;-81
2021/12/31 11:20:47;;;;;;;1.20;0.50;;;;;;;;;;5075897;28;20511;-75
2021/12/31 11:23:13;;;;;;;0.90;0.50;;;;;;;;;;5075622;28;20036;-81
2021/12/31 11:25:52;;;;;;;1.30;0.70;;;;;;;;;;5075744;28;20073;-82
2021/12/31 11:28:29;;;;;;;0.73;0.40;;;;;;;;;;5093830;28;20536;-80
2021/12/31 11:30:56;;;;;;;3.53;0.80;;;;;;;;;;5075941;28;20553;-81
2021/12/31 11:33:28;;;;;;;1.92;0.80;;;;;;;;;;5103141;28;20055;-81
2021/12/31 11:35:54;;;;;;;1.50;0.70;;;;;;;;;;5101137;28;20114;-80
2021/12/31 11:38:24;;;;;;;1.45;0.60;;;;;;;;;;5094078;28;20032;-81
2021/12/31 11:41:02;;;;;;;0.90;0.55;;;;;;;;;;5075404;28;20385;-81
2021/12/31 11:43:29;;;;;;;1.77;0.45;;;;;;;;;;5075407;28;20488;-81
2021/12/31 11:46:11;;;;;;;0.70;0.40;;;;;;;;;;5075385;28;20470;-81
2021/12/31 11:48:50;;;;;;;0.43;0.30;;;;;;;;;;5075439;28;20031;-82
2021/12/31 11:51:17;;;;;;;0.60;0.32;;;;;;;;;;5075291;28;20028;-82
2021/12/31 11:53:59;;;;;;;0.82;0.50;;;;;;;;;;5075228;28;20032;-82
2021/12/31 11:56:37;;;;;;;0.60;0.38;;;;;;;;;;5075291;28;20030;-82
2021/12/31 11:59:09;;;;;;;0.85;0.40;;;;;;;;;;5075230;28;20028;-82
2021/12/31 12:01:35;;;;;;;;;;;;;;;;;;5075649;28;20032;-76
2021/12/31 12:04:34;;;;;;;1.20;0.50;;;;;;;;;;5075261;28;19904;-82
2021/12/31 12:07:09;;;;;;;1.17;0.43;;;;;;;;;;5042601;28;20510;-76
2021/12/31 12:09:38;;;;;;;1.30;0.40;;;;;;;;;;5075174;28;20510;-80
2021/12/31 12:12:10;;;;;;;0.70;0.40;;;;;;;;;;5075129;28;20051;-81
2021/12/31 12:14:49;;;;;;;0.45;0.30;;;;;;;;;;5075113;28;20062;-81
2021/12/31 12:17:43;;;;;;;0.75;0.40;;;;;;;;;;5075117;28;20114;-77
2021/12/31 12:20:13;;;;;;;1.17;0.40;;;;;;;;;;5075070;28;20028;-82
2021/12/31 12:22:49;;;;;;;1.42;0.50;;;;;;;;;;5075063;28;20093;-76
2021/12/31 12:25:18;;;;;;;0.88;0.38;;;;;;;;;;5074984;28;20113;-81
2021/12/31 12:27:47;;;;;;;0.93;0.50;;;;;;;;;;5075126;28;20047;-76
2021/12/31 12:30:15;;;;;;;0.90;0.50;;;;;;;;;;5096067;28;20411;-78
2021/12/31 12:35:18;;;;;;;0.85;0.40;;;;;;;;;;5096887;28;20094;-79
2021/12/31 12:37:54;;;;;;;0.60;0.30;;;;;;;;;;5078717;28;20027;-81
2021/12/31 12:40:20;;;;;;;0.70;0.40;;;;;;;;;;5078716;28;20476;-79
2021/12/31 12:42:46;;;;;;;0.60;0.40;;;;;;;;;;5075020;28;20131;-79
2021/12/31 12:45:13;;;;;;;0.95;0.50;;;;;;;;;;5075180;28;20404;-76
2021/12/31 12:47:39;;;;;;;0.40;0.20;;;;;;;;;;5075085;28;20082;-80
2021/12/31 12:50:08;;;;;;;0.55;0.40;;;;;;;;;;5075058;28;20028;-81
2021/12/31 12:52:34;;;;;;;0.75;0.32;;;;;;;;;;5074989;28;20037;-79
2021/12/31 12:55:08;;;;;;;2.13;0.95;;;;;;;;;;5076323;28;20080;-79
2021/12/31 12:57:34;;;;;;;2.25;0.43;;;;;;;;;;5076280;28;20066;-79
2021/12/31 13:00:00;;;;;;;0.85;0.30;;;;;;;;;;5076729;28;20039;-76
2021/12/31 13:02:36;;;;;;;2.05;0.40;;;;;;;;;;5076651;28;20115;-78
2021/12/31 13:05:06;;;;;;;0.77;0.35;;;;;;;;;;5076076;28;20048;-79
2021/12/31 13:07:32;;;;;;;0.90;0.43;;;;;;;;;;5076848;28;20400;-80
2021/12/31 13:10:04;;;;;;;2.38;0.30;;;;;;;;;;5087423;28;20027;-78
2021/12/31 13:12:30;;;;;;;0.40;0.20;;;;;;;;;;5094722;28;20507;-79
2021/12/31 13:14:59;;;;;;;0.57;0.22;;;;;;;;;;5096132;28;20468;-80
2021/12/31 13:17:28;;;;;;;2.42;0.90;;;;;;;;;;5096134;28;20028;-80
2021/12/31 13:20:05;;;;;;;0.57;0.28;;;;;;;;;;5095976;28;20020;-81
2021/12/31 13:22:35;;;;;;;1.08;0.30;;;;;;;;;;5094703;28;20484;-80
2021/12/31 13:25:03;;;;;;;0.65;0.22;;;;;;;;;;5094773;28;20027;-81
2021/12/31 13:27:35;;;;;;;2.47;0.65;;;;;;;;;;5094827;28;20024;-81
2021/12/31 13:30:04;;;;;;;3.10;1.50;;;;;;;;;;5094739;28;20020;-84
2021/12/31 13:32:37;;;;;;;2.45;0.80;;;;;;;;;;5096038;28;20033;-81
2021/12/31 13:35:06;;;;;;;1.00;0.55;;;;;;;;;;5095990;28;20031;-81
2021/12/31 13:37:38;;;;;;;0.88;0.40;;;;;;;;;;5096484;28;20445;-83
2021/12/31 13:40:13;;;;;;;1.50;0.57;;;;;;;;;;5095952;28;20021;-83
2021/12/31 13:42:39;;;;;;;1.02;0.45;;;;;;;;;;5094637;28;20522;-82
2021/12/31 13:45:06;;;;;;;1.02;0.40;;;;;;;;;;5094687;28;20024;-83
2021/12/31 13:47:32;;;;;;;0.70;0.22;;;;;;;;;;5095714;28;20028;-82
2021/12/31 13:50:03;;;;;;;0.68;0.30;;;;;;;;;;5095619;28;20020;-82
2021/12/31 13:52:30;;;;;;;0.60;0.40;;;;;;;;;;5094133;28;20119;-82
2021/12/31 13:54:57;;;;;;;0.77;0.40;;;;;;;;;;5095644;28;20032;-81
2021/12/31 13:57:25;;;;;;;2.38;0.50;;;;;;;;;;5095664;28;20365;-83
2021/12/31 13:59:52;;;;;;;0.57;0.30;;;;;;;;;;5095632;28;20024;-82
2021/12/31 14:02:28;;;;;;;0.88;0.45;;;;;;;;;;5103334;28;20474;-82
2021/12/31 14:04:54;;;;;;;1.40;0.50;;;;;;;;;;5118784;28;20062;-82
2021/12/31 14:07:34;;;;;;;1.45;0.50;;;;;;;;;;5099458;28;20091;-82
2021/12/31 14:10:03;;;;;;;1.95;0.80;;;;;;;;;;5095033;28;20030;-81
2021/12/31 14:12:29;;;;;;;2.97;0.65;;;;;;;;;;5094990;28;20036;-81
2021/12/31 14:14:55;;;;;;;4.40;0.65;;;;;;;;;;5094973;28;20548;-81
2021/12/31 14:17:22;;;;;;;4.00;0.80;;;;;;;;;;5094895;28;20047;-79
2021/12/31 14:19:48;;;;;;;2.15;0.73;;;;;;;;;;5094849;28;20027;-82
2021/12/31 14:22:14;;;;;;;2.03;1.00;;;;;;;;;;5093541;28;20020;-78
2021/12/31 14:24:40;;;;;;;1.77;0.70;;;;;;;;;;5094793;28;20110;-83
2021/12/31 14:27:07;;;;;;;2.10;0.90;;;;;;;;;;5093411;28;20021;-79
2021/12/31 14:29:35;;;;;;;1.85;0.57;;;;;;;;;;5094712;28;20035;-80
2021/12/31 14:32:02;;;;;;;1.00;0.50;;;;;;;;;;5095185;28;20028;-83
2021/12/31 14:34:31;;;;;;;0.95;0.43;;;;;;;;;;5094574;28;20024;-82
2021/12/31 14:37:08;;;;;;;2.05;1.00;;;;;;;;;;5093219;28;20027;-81
2021/12/31 14:39:35;;;;;;;2.90;1.00;;;;;;;;;;5093337;28;20026;-80
2021/12/31 14:42:02;;;;;;;2.20;0.70;;;;;;;;;;5093223;28;20487;-80
2021/12/31 14:44:29;;;;;;;2.58;0.80;;;;;;;;;;5094982;28;20020;-80